createdAt,value
2022-10-14T00:02:39.980Z,41.13
2022-10-14T00:07:47.202Z,41.31
2022-10-14T00:12:54.492Z,41.33
2022-10-14T00:18:01.674Z,41.46
2022-10-14T00:23:08.902Z,41.66
2022-10-14T00:28:16.249Z,41.76
2022-10-14T00:33:23.385Z,41.75
2022-10-14T00:38:30.618Z,41.84
2022-10-14T00:43:37.839Z,41.98
2022-10-14T00:48:44.988Z,41.96
2022-10-14T00:53:52.228Z,41.97
2022-10-14T00:58:59.489Z,42.08
2022-10-14T01:04:06.689Z,42.14
2022-10-14T01:09:13.947Z,42.28
2022-10-14T01:14:21.176Z,42.35
2022-10-14T01:19:28.451Z,42.43
2022-10-14T01:24:35.667Z,42.51
2022-10-14T01:29:42.918Z,42.59
2022-10-14T01:34:50.122Z,42.73
2022-10-14T01:39:57.342Z,42.81
2022-10-14T01:45:04.609Z,42.91
2022-10-14T01:50:11.758Z,42.95
2022-10-14T01:55:21.947Z,43.02
2022-10-14T02:00:29.179Z,43.06
2022-10-14T02:05:36.359Z,43.04
2022-10-14T02:10:43.668Z,43.04
2022-10-14T02:15:51.128Z,43.07
2022-10-14T02:21:01.365Z,43.05
2022-10-14T02:26:08.573Z,43.10
2022-10-14T02:31:15.756Z,43.13
2022-10-14T02:36:22.934Z,43.23
2022-10-14T02:41:30.161Z,43.29
2022-10-14T02:46:37.358Z,43.41
2022-10-14T02:51:44.591Z,43.48
2022-10-14T02:56:51.900Z,43.41
2022-10-14T03:01:59.414Z,43.39
2022-10-14T03:07:06.475Z,43.47
2022-10-14T03:12:13.690Z,43.50
2022-10-14T03:17:20.922Z,43.46
2022-10-14T03:22:28.143Z,43.40
2022-10-14T03:27:35.387Z,43.42
2022-10-14T03:32:42.644Z,43.43
2022-10-14T03:37:49.822Z,43.45
2022-10-14T03:42:57.020Z,43.36
2022-10-14T03:48:04.265Z,43.34
2022-10-14T03:53:11.441Z,43.43
2022-10-14T03:58:18.675Z,43.30
2022-10-14T04:03:25.947Z,43.19
2022-10-14T04:08:33.162Z,43.35
2022-10-14T04:13:40.358Z,43.34
2022-10-14T04:18:47.565Z,43.35
2022-10-14T04:23:56.379Z,43.30
2022-10-14T04:29:03.706Z,43.40
2022-10-14T04:34:13.498Z,43.47
2022-10-14T04:39:20.697Z,43.43
2022-10-14T04:44:27.937Z,43.49
2022-10-14T04:49:35.209Z,43.47
2022-10-14T04:54:42.398Z,43.50
2022-10-14T04:59:49.599Z,43.41
2022-10-14T05:04:56.832Z,43.36
2022-10-14T05:10:04.005Z,43.42
2022-10-14T05:15:11.217Z,43.49
2022-10-14T05:20:18.465Z,43.50
2022-10-14T05:25:28.817Z,43.41
2022-10-14T05:30:36.013Z,43.45
2022-10-14T05:35:59.394Z,43.50
2022-10-14T05:40:50.637Z,43.46
2022-10-14T05:45:57.937Z,43.43
2022-10-14T05:51:05.144Z,43.49
2022-10-14T05:56:12.345Z,43.42
2022-10-14T06:01:19.540Z,43.38
2022-10-14T06:06:29.128Z,43.38
2022-10-14T06:11:34.042Z,43.39
2022-10-14T06:16:41.283Z,43.39
2022-10-14T06:21:48.534Z,43.46
2022-10-14T06:26:55.693Z,43.31
2022-10-14T06:32:02.892Z,43.44
2022-10-14T06:37:10.115Z,43.42
2022-10-14T06:42:17.330Z,43.40
2022-10-14T06:47:24.506Z,43.45
2022-10-14T06:52:31.733Z,43.47
2022-10-14T06:57:39.546Z,43.60
2022-10-14T07:02:46.796Z,43.53
2022-10-14T07:07:54.131Z,43.53
2022-10-14T07:13:01.281Z,43.48
2022-10-14T07:18:08.567Z,43.66
2022-10-14T07:23:15.815Z,43.59
2022-10-14T07:28:23.115Z,43.52
2022-10-14T07:33:30.340Z,43.64
2022-10-14T07:38:37.560Z,43.65
2022-10-14T07:43:44.759Z,43.60
2022-10-14T07:48:57.047Z,43.55
2022-10-14T07:53:59.201Z,43.57
2022-10-14T07:59:06.350Z,43.52
2022-10-14T08:04:13.593Z,43.51
2022-10-14T08:09:20.904Z,43.54
2022-10-14T08:14:27.999Z,43.54
2022-10-14T08:19:35.192Z,43.56
2022-10-14T08:24:42.432Z,43.55
2022-10-14T08:29:49.603Z,43.59
2022-10-14T08:34:56.831Z,43.61
2022-10-14T08:40:04.040Z,43.57
2022-10-14T08:45:11.243Z,43.57
2022-10-14T08:50:18.439Z,43.60
2022-10-14T08:55:25.806Z,43.76
2022-10-14T09:00:32.889Z,44.22
2022-10-14T09:05:40.087Z,43.95
2022-10-14T09:10:47.359Z,43.88
2022-10-14T09:15:54.830Z,43.88
2022-10-14T09:21:03.432Z,43.97
2022-10-14T09:26:10.690Z,43.89
2022-10-14T09:31:17.902Z,43.78
2022-10-14T09:36:25.225Z,43.70
2022-10-14T09:41:32.473Z,43.65
2022-10-14T09:46:39.639Z,43.61
2022-10-14T09:51:46.936Z,43.66
2022-10-14T09:56:54.264Z,43.65
2022-10-14T10:02:01.431Z,43.70
2022-10-14T10:07:08.652Z,43.61
2022-10-14T10:12:16.028Z,43.62
2022-10-14T10:17:23.355Z,43.67
2022-10-14T10:22:30.251Z,43.58
2022-10-14T10:27:38.415Z,43.58
2022-10-14T10:32:45.584Z,43.67
2022-10-14T10:37:52.841Z,43.66
2022-10-14T10:43:00.053Z,43.72
2022-10-14T10:48:07.320Z,43.82
2022-10-14T10:53:14.526Z,43.92
2022-10-14T10:58:21.743Z,43.83
2022-10-14T11:03:29.029Z,43.86
2022-10-14T11:08:36.225Z,43.84
2022-10-14T11:13:43.458Z,43.83
2022-10-14T11:18:50.656Z,43.77
2022-10-14T11:23:57.861Z,43.72
2022-10-14T11:29:05.304Z,43.66
2022-10-14T11:34:12.338Z,43.52
2022-10-14T11:39:19.567Z,43.48
2022-10-14T11:44:26.852Z,43.54
2022-10-14T11:49:34.016Z,43.44
2022-10-14T11:54:41.222Z,43.54
2022-10-14T11:59:48.430Z,43.44
2022-10-14T12:04:55.595Z,43.48
2022-10-14T12:10:02.799Z,43.47
2022-10-14T12:15:09.997Z,43.45
2022-10-14T12:20:17.141Z,43.49
2022-10-14T12:25:24.363Z,43.57
2022-10-14T12:30:31.604Z,43.56
2022-10-14T12:35:38.720Z,43.57
2022-10-14T12:40:45.959Z,43.71
2022-10-14T12:45:53.120Z,43.74
2022-10-14T12:51:00.322Z,43.69
2022-10-14T12:56:07.486Z,43.75
2022-10-14T13:01:14.811Z,43.73
2022-10-14T13:06:21.950Z,43.84
2022-10-14T13:11:29.168Z,43.96
2022-10-14T13:16:36.371Z,43.95
2022-10-14T13:21:43.570Z,43.99
2022-10-14T13:26:50.781Z,44.02
2022-10-14T13:31:58.075Z,44.10
2022-10-14T13:37:05.311Z,44.08
2022-10-14T13:42:12.469Z,44.10
2022-10-14T13:47:20.105Z,44.12
2022-10-14T13:52:26.932Z,44.29
2022-10-14T13:57:59.954Z,44.36
2022-10-14T14:02:41.561Z,44.28
2022-10-14T14:12:55.917Z,44.64
2022-10-14T14:18:06.375Z,44.96
2022-10-14T14:23:13.297Z,45.01
2022-10-14T14:28:20.848Z,45.16
2022-10-14T14:33:28.158Z,44.92
2022-10-14T14:38:37.305Z,44.91
2022-10-14T14:43:53.321Z,44.99
2022-10-14T14:48:54.251Z,45.11
2022-10-14T14:53:59.016Z,44.90
2022-10-14T14:59:06.258Z,44.95
2022-10-14T15:04:14.749Z,44.96
2022-10-14T15:09:20.701Z,45.01
2022-10-14T15:14:27.895Z,45.01
2022-10-14T15:19:37.436Z,45.06
2022-10-14T15:24:42.268Z,45.03
2022-10-14T15:29:49.497Z,45.12
2022-10-14T15:34:56.697Z,45.15
2022-10-14T15:40:03.890Z,45.12
2022-10-14T15:45:11.121Z,45.09
2022-10-14T15:50:18.449Z,45.20
2022-10-14T15:55:25.610Z,45.16
2022-10-14T16:00:32.835Z,45.20
2022-10-14T16:05:40.074Z,45.16
2022-10-14T16:10:47.236Z,45.20
2022-10-14T16:15:54.451Z,45.19
2022-10-14T16:21:01.715Z,45.32
2022-10-14T16:26:08.890Z,45.50
2022-10-14T16:31:16.139Z,46.16
2022-10-14T16:36:23.397Z,46.03
2022-10-14T16:41:30.589Z,45.36
2022-10-14T16:46:37.770Z,45.55
2022-10-14T16:51:45.119Z,45.43
2022-10-14T16:56:52.280Z,45.45
2022-10-14T17:01:59.494Z,45.63
2022-10-14T17:07:06.740Z,45.53
2022-10-14T17:12:14.463Z,45.54
2022-10-14T17:17:21.113Z,45.69
2022-10-14T17:22:28.474Z,45.69
2022-10-14T17:27:35.926Z,45.84
2022-10-14T17:32:43.286Z,46.06
2022-10-14T17:37:50.975Z,46.08
2022-10-14T17:42:59.587Z,46.26
2022-10-14T17:48:07.203Z,46.66
2022-10-14T17:53:14.546Z,46.71
2022-10-14T17:58:21.766Z,46.78
2022-10-14T18:03:30.380Z,46.46
2022-10-14T18:08:37.589Z,46.35
2022-10-14T18:13:44.779Z,45.93
2022-10-14T18:18:52.010Z,45.89
2022-10-14T18:23:59.611Z,45.63
2022-10-14T18:29:07.011Z,45.70
2022-10-14T18:34:14.320Z,45.36
2022-10-14T18:39:21.601Z,45.28
2022-10-14T18:44:28.728Z,45.40
2022-10-14T18:49:39.907Z,45.20
2022-10-14T18:54:43.317Z,45.05
2022-10-14T18:59:50.645Z,45.12
2022-10-14T19:04:57.886Z,45.22
2022-10-14T19:10:05.263Z,45.15
2022-10-14T19:15:12.622Z,45.03
2022-10-14T19:20:20.370Z,45.13
2022-10-14T19:25:28.006Z,45.00
2022-10-14T19:30:35.602Z,44.98
2022-10-14T19:35:43.087Z,44.67
2022-10-14T19:40:50.446Z,44.71
2022-10-14T19:45:57.927Z,44.39
2022-10-14T19:51:07.118Z,44.58
2022-10-14T19:56:12.878Z,44.49
2022-10-14T20:01:20.594Z,44.21
2022-10-14T20:06:27.878Z,44.71
2022-10-14T20:11:35.182Z,44.71
2022-10-14T20:16:42.460Z,44.37
2022-10-14T20:21:49.722Z,44.44
2022-10-14T20:26:57.012Z,44.76
2022-10-14T20:32:04.308Z,44.74
2022-10-14T20:37:11.577Z,44.51
2022-10-14T20:42:18.815Z,44.60
2022-10-14T20:47:26.118Z,44.48
2022-10-14T20:52:33.381Z,44.57
2022-10-14T20:57:40.767Z,44.42
2022-10-14T21:02:48.055Z,44.34
2022-10-14T21:07:55.283Z,44.40
2022-10-14T21:13:02.521Z,44.24
2022-10-14T21:18:09.756Z,44.21
2022-10-14T21:23:16.993Z,44.13
2022-10-14T21:28:24.278Z,44.14
2022-10-14T21:33:31.381Z,43.99
2022-10-14T21:38:38.686Z,43.79
2022-10-14T21:43:46.576Z,43.61
2022-10-14T21:48:53.964Z,43.50
2022-10-14T21:54:01.271Z,43.58
2022-10-14T21:59:08.609Z,43.62
2022-10-14T22:04:15.832Z,43.58
2022-10-14T22:09:23.077Z,43.51
2022-10-14T22:14:30.351Z,43.42
2022-10-14T22:19:37.619Z,43.45
2022-10-14T22:24:44.902Z,43.43
2022-10-14T22:29:52.142Z,43.05
2022-10-14T22:34:59.394Z,43.31
2022-10-14T22:40:06.616Z,43.35
2022-10-14T22:45:13.831Z,43.43
2022-10-14T22:50:21.132Z,43.47
2022-10-14T22:55:28.472Z,43.44
2022-10-14T23:00:35.807Z,43.46
2022-10-14T23:05:42.938Z,43.54
2022-10-14T23:10:50.177Z,43.63
2022-10-14T23:15:57.426Z,43.49
2022-10-14T23:21:04.560Z,43.52
2022-10-14T23:26:11.814Z,43.40
2022-10-14T23:31:19.074Z,43.43
2022-10-14T23:36:26.215Z,42.85
2022-10-14T23:41:33.448Z,43.28
2022-10-14T23:46:40.735Z,43.20
2022-10-14T23:51:47.886Z,42.91
2022-10-14T23:56:55.057Z,43.11
